Time;durP1;ratioP1;P1;durP2;ratioP2;P2;SDS_P1;SDS_P2;PMS_P1;PMS_P2;Temp;Humidity;BMP_temperature;BMP_pressure;BME280_temperature;BME280_humidity;BME280_pressure;Samples;Min_cycle;Max_cycle;Signal;HPM_P1;HPM_P2
2021/10/08 00:00:03;;;;;;;;;11.25;11.25;;;;;18.19;69.35;100960.13;146605;604;46020;-77
2021/10/08 00:02:37;;;;;;;;;13.00;10.00;;;;;18.20;68.01;100954.03;146604;699;47019;-77
2021/10/08 00:05:14;;;;;;;;;12.75;12.25;;;;;18.19;68.91;100947.00;146605;578;47008;-77
2021/10/08 00:07:48;;;;;;;;;13.25;13.00;;;;;18.20;69.11;100938.31;146602;592;47010;-77
2021/10/08 00:10:22;;;;;;;;;11.50;10.25;;;;;18.16;68.59;100934.72;146605;566;46021;-77
2021/10/08 00:12:56;;;;;;;;;8.00;7.50;;;;;18.21;69.25;100948.81;146607;616;46010;-76
2021/10/08 00:15:30;;;;;;;;;11.25;11.25;;;;;18.19;69.14;100942.66;146607;682;46021;-76
2021/10/08 00:18:04;;;;;;;;;12.25;11.00;;;;;18.19;69.06;100941.75;146603;562;46016;-76
2021/10/08 00:20:38;;;;;;;;;12.00;12.00;;;;;18.15;69.14;100935.53;146604;636;46020;-75
2021/10/08 00:23:12;;;;;;;;;13.25;11.00;;;;;18.12;68.85;100910.97;146603;720;46011;-79
2021/10/08 00:25:45;;;;;;;;;13.75;12.00;;;;;18.15;69.34;100916.28;146605;576;46008;-78
2021/10/08 00:28:22;;;;;;;;;14.50;13.00;;;;;18.13;69.38;100916.28;146602;563;46016;-78
2021/10/08 00:30:56;;;;;;;;;15.00;14.00;;;;;18.13;69.40;100928.47;146607;589;46021;-76
2021/10/08 00:33:30;;;;;;;;;13.25;10.00;;;;;18.13;69.09;100937.28;146605;586;46016;-77
2021/10/08 00:36:04;;;;;;;;;15.50;15.50;;;;;18.16;69.25;100937.34;146606;628;46008;-77
2021/10/08 00:38:40;;;;;;;;;14.50;14.50;;;;;18.18;69.14;100924.25;146602;604;46016;-77
2021/10/08 00:41:14;;;;;;;;;16.25;14.00;;;;;18.27;69.61;100907.81;146605;587;46020;-80
2021/10/08 00:43:48;;;;;;;;;14.75;14.75;;;;;18.40;68.62;100902.00;146605;579;46010;-78
2021/10/08 00:46:22;;;;;;;;;15.50;13.25;;;;;18.52;68.06;100904.00;146608;626;46012;-78
2021/10/08 00:48:57;;;;;;;;;14.75;14.50;;;;;18.55;68.31;100906.69;146602;569;46016;-79
2021/10/08 00:51:31;;;;;;;;;12.00;11.50;;;;;18.59;67.85;100900.66;146609;566;46021;-78
2021/10/08 00:54:05;;;;;;;;;13.50;12.00;;;;;18.61;67.34;100893.69;146602;691;47019;-78
2021/10/08 00:56:40;;;;;;;;;12.75;11.25;;;;;18.60;68.08;100890.19;146608;597;46020;-79
2021/10/08 00:59:14;;;;;;;;;17.00;15.25;;;;;18.59;68.09;100882.25;146613;656;46016;-79
2021/10/08 01:01:48;;;;;;;;;11.75;11.75;;;;;18.54;68.35;100866.44;146613;615;46020;-79
2021/10/08 01:04:22;;;;;;;;;13.75;11.50;;;;;18.53;67.87;100867.25;146612;638;46010;-79
2021/10/08 01:06:58;;;;;;;;;14.50;14.50;;;;;18.52;68.37;100872.50;146614;641;45022;-77
2021/10/08 01:09:32;;;;;;;;;13.25;11.75;;;;;18.50;68.58;100863.69;146612;599;46010;-79
2021/10/08 01:12:06;;;;;;;;;11.25;11.00;;;;;18.48;67.97;100860.16;146612;632;46020;-76
2021/10/08 01:14:39;;;;;;;;;9.00;9.00;;;;;18.48;69.54;100865.41;146619;669;45908;-76
2021/10/08 01:17:23;;;;;;;;;14.75;13.50;;;;;18.46;68.31;100863.63;146613;619;46012;-76
2021/10/08 01:19:57;;;;;;;;;14.25;14.25;;;;;18.43;70.21;100854.78;146609;566;46016;-76
2021/10/08 01:22:31;;;;;;;;;15.75;14.75;;;;;18.48;68.23;100849.66;146609;633;46021;-77
2021/10/08 01:25:06;;;;;;;;;21.75;17.50;;;;;18.60;67.19;100837.66;146606;642;46010;-76
2021/10/08 01:27:40;;;;;;;;;14.50;14.50;;;;;18.68;67.44;100837.81;146608;595;46020;-78
2021/10/08 01:30:15;;;;;;;;;12.75;11.50;;;;;18.74;67.12;100837.97;146612;647;46016;-76
2021/10/08 01:32:50;;;;;;;;;11.25;11.25;;;;;18.76;67.80;100843.25;146618;684;46008;-74
2021/10/08 01:35:25;;;;;;;;;12.00;11.25;;;;;18.76;67.05;100841.53;146610;577;46010;-74
2021/10/08 01:37:59;;;;;;;;;9.75;9.00;;;;;18.73;67.55;100849.34;146614;593;46021;-76
2021/10/08 01:40:33;;;;;;;;;12.25;12.25;;;;;17.69;67.23;100672.13;146606;637;46016;-74
2021/10/08 01:43:06;;;;;;;;;19.25;17.50;;;;;18.72;67.13;100841.38;146613;592;46020;-74
2021/10/08 01:45:40;;;;;;;;;16.75;16.50;;;;;18.69;67.23;100832.59;146611;581;46010;-74
2021/10/08 01:48:14;;;;;;;;;13.25;12.00;;;;;18.75;67.47;100838.84;146608;598;46012;-74
2021/10/08 01:50:48;;;;;;;;;14.25;13.50;;;;;18.74;67.12;100837.09;146615;592;46010;-73
2021/10/08 01:53:22;;;;;;;;;12.25;10.25;;;;;18.72;67.83;100837.00;146607;567;46021;-73
2021/10/08 01:55:56;;;;;;;;;12.00;11.00;;;;;18.70;68.40;100825.59;146613;613;46010;-73
2021/10/08 01:58:30;;;;;;;;;10.00;9.33;;;;;18.68;68.28;100827.31;146617;629;46008;-73
2021/10/08 02:01:04;;;;;;;;;12.75;12.00;;;;;18.68;68.54;100830.81;146616;581;46010;-75
2021/10/08 02:03:38;;;;;;;;;8.25;8.00;;;;;18.66;68.64;100823.75;146622;634;45022;-76
2021/10/08 02:06:12;;;;;;;;;12.25;11.50;;;;;18.63;68.15;100821.09;146617;596;46010;-74
2021/10/08 02:08:46;;;;;;;;;14.25;14.25;;;;;18.60;69.01;100821.91;146613;683;46021;-75
2021/10/08 02:11:23;;;;;;;;;14.00;12.00;;;;;18.58;68.44;100836.75;146611;602;46016;-74
2021/10/08 02:13:57;;;;;;;;;13.00;12.25;;;;;18.55;67.84;100826.19;146616;574;46008;-75
2021/10/08 02:16:31;;;;;;;;;17.75;16.50;;;;;18.58;68.12;100830.59;146611;608;46016;-75
2021/10/08 02:19:05;;;;;;;;;11.25;11.00;;;;;18.57;68.08;100815.72;146614;604;46020;-75
2021/10/08 02:21:41;;;;;;;;;15.75;14.00;;;;;18.58;68.74;100833.22;146614;639;46011;-76
2021/10/08 02:24:15;;;;;;;;;14.25;13.25;;;;;18.59;67.70;100835.00;146610;579;46020;-74
2021/10/08 02:26:49;;;;;;;;;22.25;18.25;;;;;18.59;66.93;100827.13;146603;606;47016;-76
2021/10/08 02:29:23;;;;;;;;;17.75;17.00;;;;;18.61;67.52;100826.31;146609;581;45022;-74
2021/10/08 02:31:58;;;;;;;;;18.25;18.25;;;;;18.69;66.52;100823.81;146612;622;46010;-78
2021/10/08 02:34:32;;;;;;;;;18.00;16.00;;;;;18.77;66.33;100821.38;146612;571;46020;-77
2021/10/08 02:37:06;;;;;;;;;17.25;16.25;;;;;18.86;67.71;100818.94;146609;590;46010;-74
2021/10/08 02:39:40;;;;;;;;;17.00;15.00;;;;;18.90;68.42;100826.87;146609;647;46020;-73
2021/10/08 02:42:14;;;;;;;;;17.50;14.75;;;;;18.80;68.65;100822.31;146613;607;46016;-73
2021/10/08 02:44:48;;;;;;;;;18.25;14.50;;;;;18.80;68.80;100821.44;146608;584;46021;-70
2021/10/08 02:47:22;;;;;;;;;15.25;15.00;;;;;18.77;68.75;100811.75;146613;565;46016;-71
2021/10/08 02:49:56;;;;;;;;;12.75;12.75;;;;;18.73;67.99;100814.31;146614;693;45027;-70
2021/10/08 02:52:30;;;;;;;;;13.00;13.00;;;;;18.70;67.95;100809.84;146615;570;46010;-70
2021/10/08 02:55:04;;;;;;;;;19.75;16.75;;;;;18.70;67.61;100796.72;146610;620;45022;-71
2021/10/08 02:57:41;;;;;;;;;17.75;14.75;;;;;18.70;67.77;100799.34;146603;582;46016;-71
2021/10/08 03:00:15;;;;;;;;;16.50;15.50;;;;;18.75;67.12;100802.06;146610;566;45025;-71
2021/10/08 03:02:49;;;;;;;;;17.75;15.75;;;;;18.79;66.56;100799.56;146610;571;46908;-71
2021/10/08 03:05:25;;;;;;;;;14.50;14.50;;;;;18.86;66.54;100811.94;146613;576;46006;-71
2021/10/08 03:07:59;;;;;;;;;17.00;17.00;;;;;18.94;67.94;100825.22;146607;580;46016;-70
2021/10/08 03:10:33;;;;;;;;;13.25;13.25;;;;;17.98;66.23;100636.06;146610;667;46020;-71
2021/10/08 03:13:07;;;;;;;;;15.00;12.25;;;;;19.01;66.22;100797.31;146614;652;46017;-71
2021/10/08 03:15:41;;;;;;;;;14.00;13.00;;;;;19.03;66.30;100790.31;146611;677;45023;-71
2021/10/08 03:18:14;;;;;;;;;13.00;12.75;;;;;19.04;68.14;100803.50;146605;579;46016;-70
2021/10/08 03:20:48;;;;;;;;;17.25;16.25;;;;;19.04;68.02;100771.09;146612;705;46910;-70
2021/10/08 03:23:22;;;;;;;;;13.50;12.00;;;;;18.99;68.40;100764.88;146610;564;46010;-75
2021/10/08 03:25:56;;;;;;;;;16.75;14.25;;;;;18.95;68.30;100766.56;146611;652;46020;-75
2021/10/08 03:28:30;;;;;;;;;15.50;14.75;;;;;18.90;69.32;100765.56;146610;633;47018;-74
2021/10/08 03:31:04;;;;;;;;;14.00;14.00;;;;;18.85;68.48;100781.28;146616;630;46012;-76
2021/10/08 03:33:38;;;;;;;;;13.00;13.00;;;;;18.83;68.85;100777.72;146613;611;45020;-73
2021/10/08 03:36:20;;;;;;;;;10.00;10.00;;;;;18.81;69.70;100794.31;146608;683;46008;-76
2021/10/08 03:38:54;;;;;;;;;12.75;11.25;;;;;18.72;68.56;100794.09;146610;676;46016;-73
2021/10/08 03:41:28;;;;;;;;;9.75;9.75;;;;;18.67;68.51;100789.66;146615;620;46020;-76
2021/10/08 03:44:03;;;;;;;;;10.50;9.00;;;;;18.60;69.53;100790.41;146615;645;47019;-77
2021/10/08 03:46:41;;;;;;;;;16.25;13.75;;;;;18.60;68.72;100782.53;146617;622;46020;-75
2021/10/08 03:49:26;;;;;;;;;13.75;13.75;;;;;18.55;68.22;100752.66;146611;644;46016;-75
2021/10/08 03:52:00;;;;;;;;;11.00;8.50;;;;;18.59;67.74;100758.84;146616;622;46020;-75
2021/10/08 03:54:34;;;;;;;;;11.00;9.00;;;;;18.58;68.39;100743.94;146614;575;46016;-72
2021/10/08 03:57:08;;;;;;;;;11.00;9.33;;;;;18.54;68.69;100776.28;146617;575;46010;-74
2021/10/08 03:59:42;;;;;;;;;9.00;8.00;;;;;18.55;67.54;100778.03;146616;674;46016;-74
2021/10/08 04:02:16;;;;;;;;;10.25;9.25;;;;;18.57;68.11;100792.09;146619;651;45022;-81
2021/10/08 04:04:50;;;;;;;;;10.75;9.25;;;;;18.60;67.25;100803.53;146615;570;46016;-81
2021/10/08 04:07:23;;;;;;;;;9.50;8.00;;;;;18.63;66.87;100810.59;146619;569;46020;-81
2021/10/08 04:09:57;;;;;;;;;9.00;9.00;;;;;18.68;66.92;100786.16;146616;659;47020;-72
2021/10/08 04:12:31;;;;;;;;;13.00;9.33;;;;;18.75;65.94;100774.06;146615;596;46021;-73
2021/10/08 04:15:05;;;;;;;;;8.00;7.50;;;;;18.78;65.00;100767.97;146615;641;46016;-75
2021/10/08 04:17:39;;;;;;;;;10.00;10.00;;;;;18.88;64.95;100786.59;146617;635;46020;-76
2021/10/08 04:20:14;;;;;;;;;13.25;11.75;;;;;18.97;64.34;100770.09;146612;584;46016;-74
2021/10/08 04:22:47;;;;;;;;;11.50;11.00;;;;;19.07;63.69;100768.53;146609;604;46020;-76
2021/10/08 04:25:21;;;;;;;;;11.33;10.67;;;;;19.14;63.36;100786.16;146615;569;46016;-76
2021/10/08 04:27:55;;;;;;;;;11.25;11.25;;;;;19.22;62.95;100802.03;146614;584;46008;-75
2021/10/08 04:30:29;;;;;;;;;10.50;10.25;;;;;19.29;63.19;100785.53;146608;653;46016;-76
2021/10/08 04:33:03;;;;;;;;;14.00;12.25;;;;;19.36;63.25;100796.16;146612;571;46020;-84
2021/10/08 04:35:37;;;;;;;;;14.75;13.25;;;;;19.38;63.25;100783.94;146610;565;46017;-85
2021/10/08 04:38:11;;;;;;;;;11.50;10.00;;;;;19.39;63.70;100790.97;146615;588;46020;-85
2021/10/08 04:40:45;;;;;;;;;13.25;12.75;;;;;19.41;63.68;100775.22;146613;706;46017;-84
2021/10/08 04:43:19;;;;;;;;;14.00;13.00;;;;;19.41;62.26;100787.47;146614;577;47010;-81
2021/10/08 04:45:53;;;;;;;;;12.33;12.33;;;;;19.41;62.32;100792.72;146615;604;46016;-78
2021/10/08 04:48:27;;;;;;;;;12.00;11.25;;;;;19.43;61.48;100799.78;146614;569;46020;-78
2021/10/08 04:51:00;;;;;;;;;16.50;13.00;;;;;19.44;61.06;100801.56;146612;581;46010;-80
2021/10/08 04:53:34;;;;;;;;;10.00;10.00;;;;;19.49;60.56;100799.87;146615;648;46006;-74
2021/10/08 04:56:08;;;;;;;;;12.50;12.50;;;;;19.55;61.66;100812.25;146610;569;46017;-78
2021/10/08 04:58:42;;;;;;;;;15.25;14.00;;;;;19.59;61.78;100811.44;146613;574;45021;-78
2021/10/08 05:01:16;;;;;;;;;18.00;14.00;;;;;19.62;63.54;100807.13;146609;650;46010;-80
2021/10/08 05:03:50;;;;;;;;;13.50;12.50;;;;;19.60;64.18;100807.97;146613;604;45020;-82
2021/10/08 05:06:24;;;;;;;;;14.50;13.00;;;;;19.55;65.55;100804.34;146609;596;46010;-94
2021/10/08 05:08:58;;;;;;;;;17.75;14.75;;;;;19.46;65.99;100812.97;146613;610;45020;-91
2021/10/08 05:14:14;;;;;;;;;15.75;14.00;;;;;19.30;66.78;100818.84;146614;569;46020;-77
2021/10/08 05:16:49;;;;;;;;;15.25;13.25;;;;;19.19;68.76;100804.62;146607;601;46016;-75
2021/10/08 05:19:24;;;;;;;;;14.25;13.25;;;;;19.08;69.10;100807.97;146610;663;45021;-76
2021/10/08 05:21:58;;;;;;;;;17.00;14.00;;;;;18.99;69.53;100807.78;146607;618;46016;-75
2021/10/08 05:24:31;;;;;;;;;11.25;10.00;;;;;18.87;70.35;100813.69;146613;654;46008;-76
2021/10/08 05:27:06;;;;;;;;;13.00;12.50;;;;;18.81;69.88;100805.69;146609;622;45912;-77
2021/10/08 05:29:40;;;;;;;;;10.75;9.00;;;;;18.70;70.80;100815.09;146620;566;45020;-76
2021/10/08 05:32:14;;;;;;;;;12.25;12.25;;;;;18.66;70.17;100818.50;146610;628;46016;-76
2021/10/08 05:34:47;;;;;;;;;14.00;12.75;;;;;18.64;71.22;100804.47;146610;658;46021;-77
2021/10/08 05:37:22;;;;;;;;;13.50;12.00;;;;;18.61;72.74;100810.53;146614;577;45033;-75
2021/10/08 05:39:56;;;;;;;;;10.25;7.25;;;;;18.50;74.46;100792.78;146620;592;46020;-77
2021/10/08 05:43:13;;;;;;;;;18.00;16.25;;;;;18.38;75.54;100817.06;146702;566;46022;-73
2021/10/08 05:45:47;;;;;;;;;12.50;11.25;;;;;18.29;76.22;100843.13;146616;575;46017;-76
2021/10/08 05:48:21;;;;;;;;;11.50;10.75;;;;;18.20;76.28;100865.69;146622;614;46020;-79
2021/10/08 05:50:55;;;;;;;;;12.25;11.25;;;;;18.09;76.88;100863.66;146617;662;46016;-78
2021/10/08 05:53:29;;;;;;;;;14.25;10.00;;;;;18.03;77.79;100879.28;146620;673;46020;-80
2021/10/08 05:56:03;;;;;;;;;10.25;9.00;;;;;17.95;78.11;100879.09;146619;612;46016;-77
2021/10/08 05:58:37;;;;;;;;;12.25;11.00;;;;;17.96;76.79;100886.12;146629;619;46012;-78
2021/10/08 06:02:24;;;;;;;;;11.75;11.75;;;;;18.00;76.37;100882.69;146704;569;45022;-79
2021/10/08 06:04:58;;;;;;;;;13.50;11.75;;;;;18.04;74.58;100888.91;146613;571;46012;-81
2021/10/08 06:07:32;;;;;;;;;14.00;13.75;;;;;18.06;74.20;100900.34;146612;570;46021;-77
2021/10/08 06:10:07;;;;;;;;;12.50;10.50;;;;;18.03;75.07;100909.00;146611;603;47019;-72
2021/10/08 06:12:41;;;;;;;;;16.75;15.25;;;;;18.06;73.70;100902.97;146615;586;46020;-79
2021/10/08 06:15:16;;;;;;;;;15.50;14.50;;;;;18.08;73.44;100907.41;146610;644;46016;-78
2021/10/08 06:17:50;;;;;;;;;14.00;12.00;;;;;18.08;74.19;100907.41;146614;593;46014;-78
2021/10/08 06:20:26;;;;;;;;;15.50;15.00;;;;;18.09;73.96;100910.91;146612;566;46016;-77
2021/10/08 06:22:59;;;;;;;;;16.25;14.50;;;;;18.09;74.13;100908.28;146617;677;45022;-80
2021/10/08 06:25:33;;;;;;;;;13.00;13.00;;;;;18.10;73.78;100907.41;146611;674;46016;-85
2021/10/08 06:28:08;;;;;;;;;15.75;14.75;;;;;18.13;74.63;100916.28;146614;585;46020;-86
2021/10/08 06:30:41;;;;;;;;;16.00;14.00;;;;;18.15;73.39;100911.94;146610;567;46017;-87
2021/10/08 06:33:15;;;;;;;;;14.25;14.00;;;;;18.16;73.44;100904.94;146614;602;46020;-86
2021/10/08 06:35:49;;;;;;;;;12.50;11.25;;;;;18.16;75.54;100912.81;146611;666;46016;-85
2021/10/08 06:38:23;;;;;;;;;14.25;14.25;;;;;18.16;74.30;100907.56;146615;657;46020;-86
2021/10/08 06:40:57;;;;;;;;;11.75;10.50;;;;;18.17;72.93;100917.22;146612;614;46016;-86
2021/10/08 06:43:31;;;;;;;;;45.50;38.50;;;;;18.19;75.43;100921.66;146617;580;45037;-87
2021/10/08 06:46:05;;;;;;;;;21.00;21.00;;;;;18.15;75.20;100914.56;146612;581;46016;-85
2021/10/08 06:48:45;;;;;;;;;8.75;8.50;;;;;18.13;75.15;100908.41;146616;563;45020;-86
2021/10/08 06:51:19;;;;;;;;;8.00;8.00;;;;;18.12;74.77;100914.47;146618;572;46017;-86
2021/10/08 06:53:53;;;;;;;;;7.25;6.25;;;;;18.13;75.13;100915.34;146621;658;46020;-87
2021/10/08 06:56:29;;;;;;;;;5.33;5.33;;;;;18.12;75.84;100924.09;146619;608;46012;-77
2021/10/08 06:59:03;;;;;;;;;10.75;8.75;;;;;18.12;73.94;100910.97;146616;574;46021;-76
2021/10/08 07:01:37;;;;;;;;;6.00;6.00;;;;;18.15;75.66;100918.91;146616;600;46016;-77
2021/10/08 07:04:11;;;;;;;;;5.50;5.00;;;;;18.14;74.03;100909.28;146622;563;46028;-79
2021/10/08 07:06:45;;;;;;;;;3.33;3.33;;;;;18.16;75.92;100920.69;146618;617;46017;-77
2021/10/08 07:09:18;;;;;;;;;8.33;5.00;;;;;18.13;76.80;100933.72;146621;589;46020;-81
2021/10/08 07:11:52;;;;;;;;;8.00;8.00;;;;;18.13;76.97;100929.41;146620;598;46012;-81
2021/10/08 07:14:26;;;;;;;;;6.00;6.00;;;;;18.09;78.63;100934.53;146623;610;46021;-82
2021/10/08 07:17:06;;;;;;;;;9.50;7.50;;;;;18.10;75.48;100941.53;146616;682;46016;-83
2021/10/08 07:19:51;;;;;;;;;7.75;7.75;;;;;18.06;75.81;100939.69;146623;664;47010;-84
2021/10/08 07:22:25;;;;;;;;;12.00;9.75;;;;;18.11;77.08;100946.84;146619;565;46035;-79
2021/10/08 07:24:59;;;;;;;;;3.00;3.00;;;;;17.98;80.03;100968.38;146622;627;46019;-83
2021/10/08 07:27:32;;;;;;;;;8.00;7.50;;;;;17.98;77.87;100937.78;146615;622;46016;-83
2021/10/08 07:30:08;;;;;;;;;5.75;5.75;;;;;17.95;80.79;100945.56;146623;694;46021;-80
2021/10/08 07:32:42;;;;;;;;;4.50;4.50;;;;;17.88;80.99;100951.53;146617;586;46016;-84
2021/10/08 07:35:17;;;;;;;;;6.50;5.25;;;;;17.86;78.15;100952.34;146617;571;46020;-85
2021/10/08 07:37:52;;;;;;;;;11.00;10.50;;;;;17.91;79.07;100959.47;146616;576;46016;-87
2021/10/08 07:40:25;;;;;;;;;6.75;5.50;;;;;17.95;76.95;100958.69;146614;621;46020;-85
2021/10/08 07:43:00;;;;;;;;;21.25;19.00;;;;;18.00;78.45;100962.28;146616;578;46017;-86
2021/10/08 07:45:34;;;;;;;;;12.50;10.50;;;;;18.07;78.84;100972.94;146613;587;46020;-90
2021/10/08 07:48:08;;;;;;;;;11.75;11.00;;;;;18.12;76.73;100969.59;146612;693;45906;-84
2021/10/08 07:50:42;;;;;;;;;8.00;7.00;;;;;18.13;79.62;100976.63;146616;711;46021;-90
2021/10/08 07:53:16;;;;;;;;;11.00;11.00;;;;;18.17;77.48;100982.84;146617;569;46016;-85
2021/10/08 07:55:50;;;;;;;;;6.00;5.00;;;;;18.14;80.89;100996.78;146617;578;46020;-80
2021/10/08 07:58:27;;;;;;;;;10.75;8.00;;;;;18.15;77.23;100972.28;146619;655;46017;-82
2021/10/08 08:01:05;;;;;;;;;9.00;8.75;;;;;18.08;77.44;100974.75;146620;570;46014;-83
2021/10/08 08:03:40;;;;;;;;;7.25;7.25;;;;;18.07;75.84;100972.94;146620;564;46012;-84
2021/10/08 08:06:14;;;;;;;;;11.25;9.75;;;;;18.14;75.32;100975.78;146625;579;46011;-81
2021/10/08 08:08:48;;;;;;;;;5.33;5.33;;;;;18.19;76.25;100978.50;146620;644;47012;-82
2021/10/08 08:11:23;;;;;;;;;9.67;9.00;;;;;18.23;75.54;100972.50;146622;576;46020;-87
2021/10/08 08:13:58;;;;;;;;;9.33;8.33;;;;;18.25;76.24;100978.66;146621;625;46017;-79
2021/10/08 08:16:31;;;;;;;;;7.00;6.00;;;;;18.22;75.11;100970.69;146621;578;46020;-79
2021/10/08 08:19:06;;;;;;;;;7.33;6.00;;;;;18.19;76.35;100968.91;146620;577;46012;-79
2021/10/08 08:21:39;;;;;;;;;8.00;6.67;;;;;18.17;76.33;100969.72;146623;574;46020;-81
2021/10/08 08:24:14;;;;;;;;;6.67;6.67;;;;;18.13;76.11;100958.25;146620;654;46016;-77
2021/10/08 08:26:47;;;;;;;;;7.00;7.00;;;;;18.12;76.69;100987.06;146623;565;46020;-80
2021/10/08 08:29:21;;;;;;;;;6.00;5.00;;;;;18.10;77.79;101007.13;146619;608;47012;-82
2021/10/08 08:31:55;;;;;;;;;4.33;4.33;;;;;18.03;79.36;101020.97;146623;689;46010;-87
2021/10/08 08:34:29;;;;;;;;;5.33;4.67;;;;;17.97;81.10;100995.44;146619;600;46017;-84
2021/10/08 08:37:03;;;;;;;;;7.00;6.33;;;;;17.90;83.51;100983.91;146622;655;46020;-87
2021/10/08 08:39:39;;;;;;;;;5.33;5.33;;;;;17.82;84.92;100961.88;146618;558;46906;-80
2021/10/08 08:42:19;;;;;;;;;7.00;6.00;;;;;17.79;85.32;100956.53;146622;574;46015;-81
2021/10/08 08:44:53;;;;;;;;;11.00;10.33;;;;;17.78;84.06;100929.41;146620;646;46012;-83
2021/10/08 08:47:27;;;;;;;;;11.00;9.67;;;;;17.80;84.87;100918.06;146613;565;46020;-85
2021/10/08 08:50:01;;;;;;;;;8.00;7.00;;;;;17.78;85.87;100915.41;146622;621;46013;-85
2021/10/08 08:52:35;;;;;;;;;8.00;8.00;;;;;17.89;84.97;100911.31;146624;570;46030;-82
2021/10/08 08:55:09;;;;;;;;;10.75;9.75;;;;;18.04;83.60;100909.91;146618;655;46016;-88
2021/10/08 08:57:43;;;;;;;;;8.33;6.67;;;;;18.22;83.28;100910.31;146625;606;46011;-80
2021/10/08 09:00:19;;;;;;;;;8.50;7.50;;;;;18.42;78.71;100900.28;146617;634;46034;-82
2021/10/08 09:03:02;;;;;;;;;8.00;8.00;;;;;18.66;79.25;100911.34;146623;593;46010;-81
2021/10/08 09:05:38;;;;;;;;;8.00;7.00;;;;;18.96;79.01;100927.72;146620;601;46016;-83
2021/10/08 09:08:13;;;;;;;;;9.00;9.00;;;;;19.23;77.21;100924.75;146622;679;46020;-85
2021/10/08 09:10:50;;;;;;;;;10.00;8.67;;;;;19.42;74.86;100921.63;146618;630;46906;-83
2021/10/08 09:13:27;;;;;;;;;5.50;5.50;;;;;19.46;74.41;100935.69;146622;580;46021;-85
2021/10/08 09:16:03;;;;;;;;;11.67;11.00;;;;;19.46;75.13;100931.31;146619;613;47905;-88
2021/10/08 09:18:54;;;;;;;;;6.33;6.33;;;;;19.43;74.11;100954.06;146618;566;45020;-83
2021/10/08 09:21:36;;;;;;;;;9.33;8.33;;;;;19.42;72.64;100957.56;146621;628;46016;-82
2021/10/08 09:24:26;;;;;;;;;9.00;8.33;;;;;19.42;75.58;100966.31;146620;570;46020;-83
2021/10/08 09:27:16;;;;;;;;;6.00;5.33;;;;;19.43;73.15;100961.94;146620;575;46017;-82
2021/10/08 09:29:52;;;;;;;;;10.75;10.75;;;;;19.41;74.36;100942.59;146622;572;46010;-85
2021/10/08 09:32:27;;;;;;;;;10.33;9.33;;;;;19.37;75.01;100950.44;146613;615;46016;-85
2021/10/08 09:35:12;;;;;;;;;10.00;10.00;;;;;19.39;73.91;100966.25;146621;616;46021;-86
2021/10/08 09:37:47;;;;;;;;;10.25;8.75;;;;;19.47;75.03;100963.75;146612;635;46016;-88
2021/10/08 09:40:51;;;;;;;;;13.75;13.00;;;;;19.59;74.41;100958.72;146625;712;46010;-86
2021/10/08 09:43:33;;;;;;;;;8.50;7.50;;;;;19.68;74.99;100953.66;146612;629;46017;-87
2021/10/08 09:47:05;;;;;;;;;10.50;9.50;;;;;19.61;73.41;100947.38;146629;616;45022;-85
2021/10/08 09:49:56;;;;;;;;;11.25;11.25;;;;;19.64;74.23;100951.84;146623;661;45906;-88
2021/10/08 09:52:36;;;;;;;;;12.75;9.50;;;;;19.65;73.61;100966.75;146619;702;46020;-87
2021/10/08 09:55:16;;;;;;;;;11.00;9.67;;;;;19.65;74.62;100961.50;146618;590;46012;-86
2021/10/08 09:58:08;;;;;;;;;12.50;11.50;;;;;19.65;74.31;100935.19;146619;599;46021;-86
2021/10/08 10:01:07;;;;;;;;;18.50;15.75;;;;;19.68;74.06;100932.63;146610;662;46016;-86
2021/10/08 10:03:40;;;;;;;;;15.75;12.00;;;;;19.71;73.60;100937.06;146615;572;46010;-87
2021/10/08 10:06:15;;;;;;;;;21.50;21.00;;;;;19.73;74.91;100936.22;146611;570;46016;-89
2021/10/08 10:08:49;;;;;;;;;12.50;12.00;;;;;19.75;75.36;100937.16;146615;565;46020;-86
2021/10/08 10:11:29;;;;;;;;;17.50;16.00;;;;;19.75;74.09;100936.25;146611;613;46016;-87
2021/10/08 10:14:03;;;;;;;;;11.00;10.00;;;;;19.79;74.43;100925.81;146616;631;46020;-87
2021/10/08 10:16:37;;;;;;;;;12.00;11.25;;;;;19.86;75.59;100929.44;146612;640;46016;-89
2021/10/08 10:19:12;;;;;;;;;17.25;15.75;;;;;19.94;75.47;100935.72;146618;575;46010;-87
2021/10/08 10:21:46;;;;;;;;;13.50;13.00;;;;;20.15;78.23;100929.88;146611;592;46016;-88
2021/10/08 10:24:21;;;;;;;;;15.25;11.75;;;;;20.40;76.75;100949.56;146617;685;46010;-87
2021/10/08 10:26:56;;;;;;;;;11.75;11.25;;;;;20.58;74.82;100956.88;146610;621;46017;-85
2021/10/08 10:29:31;;;;;;;;;12.50;12.00;;;;;20.63;73.68;100964.88;146617;597;45021;-86
2021/10/08 10:32:07;;;;;;;;;9.75;9.50;;;;;20.61;71.66;100959.56;146614;674;46016;-88
2021/10/08 10:34:42;;;;;;;;;12.50;11.50;;;;;20.50;71.57;100963.78;146616;597;46020;-86
2021/10/08 10:37:46;;;;;;;;;10.25;10.00;;;;;19.42;72.05;100795.41;146610;569;46016;-88
2021/10/08 10:40:25;;;;;;;;;14.25;13.75;;;;;20.22;73.81;100955.47;146615;622;46015;-87
2021/10/08 10:43:40;;;;;;;;;9.00;9.00;;;;;20.06;72.95;100946.44;146612;662;47012;-87
2021/10/08 10:49:54;;;;;;;;;11.50;10.25;;;;;19.79;73.68;100945.97;146621;711;47012;-86
2021/10/08 10:52:29;;;;;;;;;11.75;10.00;;;;;19.72;71.54;100939.72;146614;631;46020;-86
2021/10/08 10:55:04;;;;;;;;;10.00;8.67;;;;;19.67;72.36;100929.97;146615;645;46012;-87
2021/10/08 10:58:02;;;;;;;;;10.25;9.00;;;;;19.69;72.47;100934.41;146622;708;46010;-86
2021/10/08 11:00:45;;;;;;;;;8.00;8.00;;;;;19.73;71.82;100927.44;146618;633;46016;-87
2021/10/08 11:03:25;;;;;;;;;11.25;9.50;;;;;19.77;73.30;100932.78;146612;698;46021;-86
2021/10/08 11:06:19;;;;;;;;;8.25;7.00;;;;;19.83;73.30;100930.25;146625;583;46016;-88
2021/10/08 11:09:19;;;;;;;;;9.50;9.50;;;;;19.84;73.06;100933.75;146629;615;46020;-88
2021/10/08 11:12:29;;;;;;;;;10.25;8.00;;;;;19.82;72.24;100928.50;146618;703;46018;-90
2021/10/08 11:15:42;;;;;;;;;7.25;7.25;;;;;18.75;72.32;100733.78;146631;637;46010;-87
2021/10/08 11:18:16;;;;;;;;;9.33;8.67;;;;;19.79;72.44;100910.03;146627;564;46012;-90
2021/10/08 11:20:50;;;;;;;;;9.00;9.00;;;;;19.82;72.07;100909.19;146627;628;46021;-89
2021/10/08 11:23:36;;;;;;;;;7.75;6.75;;;;;19.80;72.76;100895.13;146626;627;46016;-88
2021/10/08 11:26:13;;;;;;;;;13.00;9.67;;;;;19.85;72.55;100880.28;146622;613;46021;-87
2021/10/08 11:28:50;;;;;;;;;7.25;7.25;;;;;19.95;72.15;100870.78;146622;593;46016;-89
2021/10/08 11:31:25;;;;;;;;;7.67;7.00;;;;;20.14;71.75;100854.41;146626;590;46020;-86
2021/10/08 11:33:59;;;;;;;;;10.00;10.00;;;;;20.38;71.85;100863.53;146624;575;46016;-90
2021/10/08 11:36:35;;;;;;;;;13.75;13.25;;;;;20.64;71.47;100855.97;146626;618;46020;-90
2021/10/08 11:39:22;;;;;;;;;8.00;7.67;;;;;20.92;70.87;100858.06;146627;574;45018;-89
2021/10/08 11:42:14;;;;;;;;;24.50;23.25;;;;;21.16;70.43;100864.47;146623;569;46021;-88
2021/10/08 11:45:05;;;;;;;;;15.00;12.00;;;;;21.33;69.36;100859.34;146616;675;46016;-89
2021/10/08 11:47:46;;;;;;;;;8.75;8.50;;;;;21.26;67.74;100849.63;146630;570;46020;-88
2021/10/08 11:50:40;;;;;;;;;12.50;10.25;;;;;21.18;69.37;100854.81;146627;677;46016;-88
2021/10/08 11:53:14;;;;;;;;;13.00;12.75;;;;;21.22;69.61;100859.25;146623;610;46020;-89
2021/10/08 11:55:48;;;;;;;;;25.50;22.00;;;;;21.48;69.70;100854.25;146619;570;46018;-88
2021/10/08 11:58:26;;;;;;;;;21.75;21.50;;;;;21.88;70.03;100850.16;146610;570;46033;-86
2021/10/08 12:01:00;;;;;;;;;7.33;7.33;;;;;22.06;67.20;100853.81;146626;606;46012;-86
2021/10/08 12:03:43;;;;;;;;;10.00;7.33;;;;;21.97;66.61;100853.75;146625;641;46022;-86